createdAt,value
2022-07-29T00:01:51.472Z,2.08
2022-07-29T00:04:18.387Z,2.63
2022-07-29T00:06:45.238Z,1.88
2022-07-29T00:09:13.113Z,1.92
2022-07-29T00:11:39.611Z,2.05
2022-07-29T00:14:06.318Z,2.40
2022-07-29T00:16:32.901Z,2.35
2022-07-29T00:19:02.084Z,2.20
2022-07-29T00:21:29.068Z,2.05
2022-07-29T00:23:55.680Z,1.90
2022-07-29T00:26:23.998Z,2.20
2022-07-29T00:28:50.540Z,2.15
2022-07-29T00:31:17.213Z,2.25
2022-07-29T00:33:43.758Z,2.05
2022-07-29T00:36:10.277Z,1.80
2022-07-29T00:38:36.807Z,2.13
2022-07-29T00:41:03.345Z,2.42
2022-07-29T00:43:31.500Z,2.00
2022-07-29T00:45:58.023Z,2.25
2022-07-29T00:48:24.558Z,2.00
2022-07-29T00:50:51.369Z,2.05
2022-07-29T00:53:18.033Z,2.30
2022-07-29T00:55:44.589Z,2.28
2022-07-29T00:58:13.052Z,2.35
2022-07-29T01:00:41.012Z,2.08
2022-07-29T01:03:08.040Z,1.95
2022-07-29T01:05:50.682Z,2.53
2022-07-29T01:08:18.450Z,2.28
2022-07-29T01:10:46.569Z,2.15
2022-07-29T01:13:14.298Z,1.90
2022-07-29T01:15:49.125Z,2.05
2022-07-29T01:18:22.282Z,2.22
2022-07-29T01:21:21.326Z,2.13
2022-07-29T01:24:00.261Z,2.47
2022-07-29T01:26:38.881Z,2.20
2022-07-29T01:29:13.653Z,2.40
2022-07-29T01:31:59.301Z,2.28
2022-07-29T01:34:35.701Z,2.40
2022-07-29T01:37:08.771Z,2.15
2022-07-29T01:39:38.238Z,2.40
2022-07-29T01:42:13.570Z,2.03
2022-07-29T01:44:49.402Z,2.13
2022-07-29T01:47:21.398Z,2.33
2022-07-29T01:49:52.088Z,2.00
2022-07-29T01:52:22.768Z,2.38
2022-07-29T01:54:55.553Z,2.17
2022-07-29T01:57:28.860Z,2.20
2022-07-29T01:59:59.235Z,2.20
2022-07-29T02:02:29.207Z,2.10
2022-07-29T02:04:57.187Z,2.20
2022-07-29T02:07:28.578Z,2.33
2022-07-29T02:09:56.457Z,2.40
2022-07-29T02:12:25.086Z,2.13
2022-07-29T02:14:54.619Z,2.10
2022-07-29T02:17:27.047Z,2.40
2022-07-29T02:19:56.904Z,2.25
2022-07-29T02:22:25.038Z,2.17
2022-07-29T02:24:53.946Z,2.50
2022-07-29T02:27:21.526Z,1.83
2022-07-29T02:29:51.030Z,2.20
2022-07-29T02:32:18.822Z,2.30
2022-07-29T02:34:48.321Z,2.10
2022-07-29T02:37:17.599Z,2.35
2022-07-29T02:39:45.749Z,2.28
2022-07-29T02:42:16.439Z,2.20
2022-07-29T02:44:43.506Z,2.20
2022-07-29T02:47:17.354Z,2.38
2022-07-29T02:49:54.407Z,2.08
2022-07-29T02:52:25.134Z,2.28
2022-07-29T02:54:55.835Z,2.30
2022-07-29T02:57:29.668Z,2.10
2022-07-29T02:59:59.110Z,2.40
2022-07-29T03:02:27.903Z,2.13
2022-07-29T03:04:57.489Z,2.42
2022-07-29T03:07:25.468Z,2.70
2022-07-29T03:09:53.270Z,2.45
2022-07-29T03:12:20.515Z,2.35
2022-07-29T03:14:47.948Z,2.67
2022-07-29T03:19:49.450Z,2.00
2022-07-29T03:22:19.213Z,2.08
2022-07-29T03:24:45.992Z,2.60
2022-07-29T03:27:13.982Z,1.92
2022-07-29T03:29:40.490Z,2.28
2022-07-29T03:32:10.199Z,2.25
2022-07-29T03:34:38.019Z,2.05
2022-07-29T03:37:04.890Z,1.90
2022-07-29T03:39:36.178Z,2.50
2022-07-29T03:42:05.422Z,2.20
2022-07-29T03:44:33.535Z,2.00
2022-07-29T03:47:01.502Z,2.35
2022-07-29T03:49:29.151Z,2.58
2022-07-29T03:51:56.195Z,2.10
2022-07-29T03:54:23.618Z,2.30
2022-07-29T03:56:53.976Z,2.53
2022-07-29T03:59:21.975Z,2.25
2022-07-29T04:01:49.659Z,2.10
2022-07-29T04:04:16.793Z,2.33
2022-07-29T04:06:45.766Z,2.20
2022-07-29T04:09:14.876Z,2.55
2022-07-29T04:11:57.131Z,2.30
2022-07-29T04:14:30.932Z,2.10
2022-07-29T04:16:57.414Z,2.40
2022-07-29T04:19:23.931Z,2.20
2022-07-29T04:21:50.499Z,2.10
2022-07-29T04:24:17.755Z,2.20
2022-07-29T04:26:46.329Z,2.30
2022-07-29T04:29:12.839Z,2.42
2022-07-29T04:31:41.393Z,2.40
2022-07-29T04:34:08.383Z,2.00
2022-07-29T04:36:34.883Z,2.40
2022-07-29T04:39:01.440Z,2.25
2022-07-29T04:41:32.734Z,2.50
2022-07-29T04:44:00.285Z,1.98
2022-07-29T04:46:28.209Z,2.38
2022-07-29T04:48:56.189Z,2.65
2022-07-29T04:51:22.870Z,2.53
2022-07-29T04:53:49.369Z,2.45
2022-07-29T04:56:15.874Z,2.38
2022-07-29T04:58:42.415Z,2.40
2022-07-29T05:01:09.004Z,2.38
2022-07-29T05:03:35.563Z,2.40
2022-07-29T05:06:03.558Z,2.17
2022-07-29T05:08:30.151Z,2.30
2022-07-29T05:10:56.876Z,2.53
2022-07-29T05:13:23.365Z,2.50
2022-07-29T05:15:49.971Z,2.17
2022-07-29T05:18:16.631Z,2.70
2022-07-29T05:20:43.150Z,2.13
2022-07-29T05:23:11.359Z,2.50
2022-07-29T05:25:43.239Z,2.38
2022-07-29T05:28:10.561Z,2.70
2022-07-29T05:30:37.149Z,2.50
2022-07-29T05:33:03.678Z,2.33
2022-07-29T05:35:30.339Z,2.40
2022-07-29T05:37:56.921Z,2.50
2022-07-29T05:40:25.034Z,2.08
2022-07-29T05:42:51.524Z,2.35
2022-07-29T05:45:18.116Z,2.40
2022-07-29T05:47:44.666Z,2.35
2022-07-29T05:50:11.206Z,2.40
2022-07-29T05:52:37.747Z,2.35
2022-07-29T05:55:04.900Z,2.70
2022-07-29T05:57:33.104Z,2.75
2022-07-29T05:59:59.682Z,2.10
2022-07-29T06:02:26.232Z,2.30
2022-07-29T06:04:53.087Z,2.38
2022-07-29T06:07:19.622Z,2.67
2022-07-29T06:09:46.210Z,2.33
2022-07-29T06:12:12.803Z,2.85
2022-07-29T06:14:40.728Z,2.70
2022-07-29T06:17:07.261Z,2.72
2022-07-29T06:19:35.618Z,2.55
2022-07-29T06:22:02.127Z,2.55
2022-07-29T06:24:28.793Z,3.17
2022-07-29T06:26:55.369Z,2.97
2022-07-29T06:29:21.921Z,2.17
2022-07-29T06:31:49.852Z,2.50
2022-07-29T06:34:16.854Z,3.00
2022-07-29T06:36:44.319Z,2.70
2022-07-29T06:39:12.589Z,2.80
2022-07-29T06:41:39.131Z,2.40
2022-07-29T06:44:05.740Z,2.50
2022-07-29T06:46:32.841Z,2.88
2022-07-29T06:49:00.933Z,2.60
2022-07-29T06:51:27.534Z,2.47
2022-07-29T06:53:59.418Z,2.70
2022-07-29T06:56:30.312Z,2.90
2022-07-29T06:58:56.839Z,2.55
2022-07-29T07:01:23.471Z,2.83
2022-07-29T07:03:50.043Z,2.65
2022-07-29T07:06:17.946Z,2.28
2022-07-29T07:08:44.620Z,2.30
2022-07-29T07:11:11.259Z,2.40
2022-07-29T07:13:37.848Z,2.30
2022-07-29T07:16:05.407Z,2.80
2022-07-29T07:18:32.200Z,2.45
2022-07-29T07:20:59.281Z,2.70
2022-07-29T07:23:27.159Z,2.50
2022-07-29T07:25:53.795Z,2.50
2022-07-29T07:28:24.508Z,2.90
2022-07-29T07:30:51.746Z,2.42
2022-07-29T07:33:18.374Z,2.78
2022-07-29T07:35:44.972Z,2.85
2022-07-29T07:38:11.529Z,2.53
2022-07-29T07:40:39.564Z,2.72
2022-07-29T07:43:06.162Z,3.17
2022-07-29T07:45:33.155Z,2.75
2022-07-29T07:47:59.712Z,2.35
2022-07-29T07:50:27.723Z,3.00
2022-07-29T07:52:56.257Z,2.80
2022-07-29T07:55:22.794Z,3.08
2022-07-29T07:57:50.727Z,2.72
2022-07-29T08:00:18.146Z,3.10
2022-07-29T08:02:45.458Z,2.78
2022-07-29T08:05:13.140Z,2.65
2022-07-29T08:07:40.018Z,2.70
2022-07-29T08:10:08.326Z,2.53
2022-07-29T08:12:34.878Z,2.50
2022-07-29T08:15:03.134Z,2.70
2022-07-29T08:17:29.660Z,3.20
2022-07-29T08:19:56.214Z,3.08
2022-07-29T08:22:22.746Z,3.05
2022-07-29T08:24:49.336Z,2.90
2022-07-29T08:27:42.030Z,2.60
2022-07-29T08:30:04.559Z,3.05
2022-07-29T08:32:52.724Z,2.50
2022-07-29T08:35:17.677Z,3.15
2022-07-29T08:37:44.208Z,2.75
2022-07-29T08:40:11.817Z,2.85
2022-07-29T08:42:38.538Z,2.53
2022-07-29T08:45:08.102Z,2.88
2022-07-29T08:47:34.674Z,2.70
2022-07-29T08:50:01.249Z,2.88
2022-07-29T08:52:29.792Z,2.70
2022-07-29T08:54:56.522Z,2.92
2022-07-29T08:57:23.874Z,3.03
2022-07-29T08:59:53.336Z,3.28
2022-07-29T09:02:22.951Z,3.15
2022-07-29T09:04:50.021Z,2.92
2022-07-29T09:07:20.105Z,3.20
2022-07-29T09:09:47.315Z,2.83
2022-07-29T09:12:13.877Z,2.90
2022-07-29T09:14:55.598Z,3.00
2022-07-29T09:17:45.263Z,2.90
2022-07-29T09:20:14.153Z,2.92
2022-07-29T09:22:42.255Z,2.45
2022-07-29T09:25:09.523Z,2.70
2022-07-29T09:27:36.191Z,2.78
2022-07-29T09:30:05.726Z,2.80
2022-07-29T09:32:33.309Z,2.78
2022-07-29T09:35:18.169Z,2.90
2022-07-29T09:37:45.670Z,2.65
2022-07-29T09:40:14.315Z,2.70
2022-07-29T09:42:40.878Z,2.70
2022-07-29T09:45:08.184Z,2.80
2022-07-29T09:47:45.348Z,2.83
2022-07-29T09:50:12.105Z,3.30
2022-07-29T09:52:47.973Z,2.85
2022-07-29T09:55:18.143Z,3.00
2022-07-29T09:57:47.806Z,3.08
2022-07-29T10:00:17.726Z,3.25
2022-07-29T10:02:45.792Z,3.10
2022-07-29T10:05:21.055Z,2.63
2022-07-29T10:07:53.964Z,3.20
2022-07-29T10:10:25.819Z,2.95
2022-07-29T10:15:22.679Z,2.80
2022-07-29T10:17:49.892Z,2.90
2022-07-29T10:20:16.810Z,2.90
2022-07-29T10:22:53.178Z,2.70
2022-07-29T10:25:22.447Z,2.70
2022-07-29T10:27:49.859Z,3.05
2022-07-29T10:30:17.244Z,2.92
2022-07-29T10:33:07.514Z,2.88
2022-07-29T10:36:06.037Z,3.22
2022-07-29T10:38:45.782Z,2.83
2022-07-29T10:41:44.315Z,3.08
2022-07-29T10:44:19.015Z,3.30
2022-07-29T10:46:46.821Z,2.78
2022-07-29T10:49:15.848Z,2.95
2022-07-29T10:52:03.626Z,3.13
2022-07-29T10:54:44.544Z,2.90
2022-07-29T10:57:19.002Z,2.70
2022-07-29T10:59:48.767Z,2.83
2022-07-29T11:02:43.805Z,3.22
2022-07-29T11:07:45.528Z,2.97
2022-07-29T11:10:27.066Z,2.92
2022-07-29T11:12:59.473Z,2.92
2022-07-29T11:15:28.478Z,2.55
2022-07-29T11:18:08.250Z,3.00
2022-07-29T11:20:44.073Z,2.83
2022-07-29T11:23:25.861Z,2.90
2022-07-29T11:26:18.816Z,3.00
2022-07-29T11:28:58.415Z,2.85
2022-07-29T11:31:37.777Z,2.75
2022-07-29T11:34:28.022Z,2.00
2022-07-29T11:37:16.222Z,1.70
2022-07-29T11:39:45.289Z,2.42
2022-07-29T11:42:41.831Z,2.00
2022-07-29T11:45:43.798Z,2.13
2022-07-29T11:48:27.751Z,1.63
2022-07-29T11:50:48.373Z,2.22
2022-07-29T11:53:15.545Z,2.00
2022-07-29T11:55:50.591Z,1.90
2022-07-29T11:58:22.683Z,1.90
2022-07-29T12:00:55.630Z,1.90
2022-07-29T12:03:32.797Z,1.90
2022-07-29T12:06:00.318Z,1.80
2022-07-29T12:08:26.997Z,2.08
2022-07-29T12:10:53.581Z,1.85
2022-07-29T12:13:22.204Z,1.88
2022-07-29T12:16:00.000Z,1.63
2022-07-29T12:18:27.030Z,1.70
2022-07-29T12:20:58.795Z,1.90
2022-07-29T12:23:25.614Z,1.58
2022-07-29T12:25:56.307Z,1.70
2022-07-29T12:28:27.652Z,1.70
2022-07-29T12:33:24.913Z,1.77
2022-07-29T12:36:03.810Z,1.63
2022-07-29T12:38:34.083Z,1.83
2022-07-29T12:41:00.682Z,1.52
2022-07-29T12:43:27.658Z,1.60
2022-07-29T12:45:57.120Z,1.85
2022-07-29T12:48:34.838Z,1.77
2022-07-29T12:51:02.666Z,1.80
2022-07-29T12:53:29.931Z,1.80
2022-07-29T12:55:58.045Z,1.70
2022-07-29T12:58:33.769Z,2.10
2022-07-29T13:01:04.640Z,1.50
2022-07-29T13:03:43.558Z,1.70
2022-07-29T13:06:36.527Z,2.05
2022-07-29T13:09:13.925Z,1.65
2022-07-29T13:11:46.518Z,2.00
2022-07-29T13:14:30.230Z,2.20
2022-07-29T13:17:06.548Z,2.15
2022-07-29T13:19:38.608Z,1.80
2022-07-29T13:22:05.358Z,1.92
2022-07-29T13:24:31.908Z,2.05
2022-07-29T13:26:58.527Z,1.88
2022-07-29T13:29:26.576Z,1.80
2022-07-29T13:31:57.099Z,1.60
2022-07-29T13:34:25.127Z,1.90
2022-07-29T13:36:51.661Z,1.65
2022-07-29T13:39:18.205Z,1.83
2022-07-29T13:41:44.729Z,1.60
2022-07-29T13:44:11.935Z,1.90
2022-07-29T13:46:39.982Z,2.00
2022-07-29T13:49:06.833Z,1.80
2022-07-29T13:51:34.753Z,1.75
2022-07-29T13:54:01.309Z,2.00
2022-07-29T13:56:29.207Z,1.92
2022-07-29T13:58:55.769Z,1.80
2022-07-29T14:01:22.686Z,1.75
2022-07-29T14:03:49.311Z,1.80
2022-07-29T14:06:15.938Z,1.67
2022-07-29T14:08:46.149Z,1.63
2022-07-29T14:11:12.698Z,1.83
2022-07-29T14:13:39.261Z,1.95
2022-07-29T14:16:06.570Z,1.80
2022-07-29T14:18:33.256Z,1.65
2022-07-29T14:21:00.010Z,1.70
2022-07-29T14:23:26.577Z,1.92
2022-07-29T14:25:54.468Z,1.63
2022-07-29T14:28:21.066Z,1.90
2022-07-29T14:30:47.954Z,1.98
2022-07-29T14:33:14.526Z,1.65
2022-07-29T14:35:41.100Z,1.88
2022-07-29T14:38:07.657Z,1.50
2022-07-29T14:40:34.698Z,1.70
2022-07-29T14:43:03.007Z,1.80
2022-07-29T14:45:30.090Z,1.80
2022-07-29T14:47:57.308Z,1.80
2022-07-29T14:50:31.781Z,1.80
2022-07-29T14:52:58.949Z,1.63
2022-07-29T14:55:25.720Z,1.70
2022-07-29T14:57:55.439Z,1.77
2022-07-29T15:00:26.654Z,1.67
2022-07-29T15:03:02.025Z,1.90
2022-07-29T15:05:29.506Z,1.70
2022-07-29T15:07:56.075Z,1.90
2022-07-29T15:10:22.685Z,1.63
2022-07-29T15:12:51.438Z,1.50
2022-07-29T15:15:18.108Z,1.70
2022-07-29T15:17:46.002Z,1.60
2022-07-29T15:20:12.633Z,1.67
2022-07-29T15:22:39.531Z,1.70
2022-07-29T15:25:07.031Z,1.67
2022-07-29T15:27:33.796Z,1.50
2022-07-29T15:30:00.360Z,1.70
2022-07-29T15:32:27.159Z,1.60
2022-07-29T15:34:55.093Z,1.33
2022-07-29T15:37:21.636Z,1.77
2022-07-29T15:39:48.174Z,1.50
2022-07-29T15:42:14.709Z,1.40
2022-07-29T15:44:44.433Z,1.55
2022-07-29T15:47:11.051Z,1.50
2022-07-29T15:49:47.525Z,1.60
2022-07-29T15:52:18.789Z,1.35
2022-07-29T15:54:45.679Z,1.45
2022-07-29T15:57:12.521Z,1.40
2022-07-29T15:59:39.139Z,1.65
2022-07-29T16:02:06.486Z,1.45
2022-07-29T16:04:33.098Z,1.85
2022-07-29T16:07:00.327Z,1.38
2022-07-29T16:09:28.500Z,1.50
2022-07-29T16:11:55.025Z,1.63
2022-07-29T16:14:21.712Z,1.17
2022-07-29T16:16:48.518Z,1.30
2022-07-29T16:19:16.354Z,1.30
2022-07-29T16:21:42.911Z,1.15
2022-07-29T16:24:09.637Z,1.38
2022-07-29T16:26:37.585Z,1.20
2022-07-29T16:29:04.755Z,1.20
2022-07-29T16:31:31.574Z,1.10
2022-07-29T16:33:58.172Z,1.00
2022-07-29T16:36:24.701Z,1.20
2022-07-29T16:38:51.354Z,1.45
2022-07-29T16:41:17.934Z,1.08
2022-07-29T16:43:45.887Z,1.42
2022-07-29T16:46:12.524Z,1.70
2022-07-29T16:48:45.438Z,1.73
2022-07-29T16:51:14.283Z,1.80
2022-07-29T16:53:41.241Z,1.95
2022-07-29T16:56:08.485Z,1.90
2022-07-29T16:58:43.449Z,2.10
2022-07-29T17:01:12.377Z,1.90
2022-07-29T17:03:39.115Z,1.95
2022-07-29T17:06:05.696Z,2.10
2022-07-29T17:08:32.217Z,1.90
2022-07-29T17:10:58.759Z,1.90
2022-07-29T17:13:25.299Z,2.05
2022-07-29T17:15:51.859Z,2.13
2022-07-29T17:18:19.798Z,1.90
2022-07-29T17:20:46.377Z,2.00
2022-07-29T17:23:12.944Z,2.35
2022-07-29T17:25:39.492Z,2.20
2022-07-29T17:28:06.066Z,1.90
2022-07-29T17:30:32.644Z,2.13
2022-07-29T17:32:59.177Z,2.05
2022-07-29T17:35:27.098Z,2.45
2022-07-29T17:37:53.744Z,2.17
2022-07-29T17:40:20.637Z,2.35
2022-07-29T17:42:47.192Z,2.25
2022-07-29T17:45:13.775Z,2.05
2022-07-29T17:47:40.291Z,2.17
2022-07-29T17:50:07.228Z,1.92
2022-07-29T17:52:35.637Z,2.35
2022-07-29T17:55:02.240Z,2.33
2022-07-29T17:57:28.796Z,2.00
2022-07-29T17:59:55.365Z,2.28
2022-07-29T18:02:21.969Z,1.92
2022-07-29T18:04:51.606Z,2.40
2022-07-29T18:07:18.178Z,2.55
2022-07-29T18:09:46.120Z,2.10
2022-07-29T18:12:12.683Z,2.17
2022-07-29T18:14:39.257Z,2.40
2022-07-29T18:17:05.838Z,2.80
2022-07-29T18:19:32.378Z,2.45
2022-07-29T18:22:04.031Z,2.70
2022-07-29T18:24:32.046Z,2.60
2022-07-29T18:27:00.238Z,2.55
2022-07-29T18:29:27.056Z,2.63
2022-07-29T18:31:53.579Z,2.30
2022-07-29T18:34:20.125Z,2.58
2022-07-29T18:36:47.149Z,2.63
2022-07-29T18:39:20.841Z,2.90
2022-07-29T18:41:50.125Z,2.80
2022-07-29T18:44:21.815Z,2.95
2022-07-29T18:49:16.026Z,2.83
2022-07-29T18:51:42.918Z,2.75
2022-07-29T18:54:09.561Z,2.72
2022-07-29T18:56:36.628Z,2.90
2022-07-29T18:59:03.233Z,2.92
2022-07-29T19:01:31.592Z,2.80
2022-07-29T19:03:59.102Z,2.88
2022-07-29T19:06:26.171Z,3.03
2022-07-29T19:08:52.833Z,2.92
2022-07-29T19:11:19.389Z,3.20
2022-07-29T19:13:45.917Z,3.00
2022-07-29T19:16:12.554Z,3.10
2022-07-29T19:18:40.704Z,3.20
2022-07-29T19:21:07.410Z,2.83
2022-07-29T19:24:00.223Z,3.10
2022-07-29T19:26:20.930Z,3.28
2022-07-29T19:28:48.830Z,3.17
2022-07-29T19:31:16.208Z,3.13
2022-07-29T19:33:44.255Z,3.40
2022-07-29T19:36:10.927Z,3.10
2022-07-29T19:38:37.456Z,3.22
2022-07-29T19:41:04.022Z,3.08
2022-07-29T19:43:51.149Z,3.30
2022-07-29T19:46:17.166Z,3.10
2022-07-29T19:48:45.139Z,3.50
2022-07-29T19:51:11.850Z,3.00
2022-07-29T19:53:38.382Z,3.50
2022-07-29T19:56:05.533Z,2.97
2022-07-29T19:58:35.462Z,3.50
2022-07-29T20:01:02.762Z,3.45
2022-07-29T20:03:37.199Z,3.35
2022-07-29T20:06:05.427Z,3.58
2022-07-29T20:08:31.958Z,3.30
2022-07-29T20:10:58.529Z,3.38
2022-07-29T20:13:25.068Z,3.20
2022-07-29T20:15:51.664Z,3.33
2022-07-29T20:18:18.281Z,3.42
2022-07-29T20:20:44.818Z,3.42
2022-07-29T20:23:12.784Z,3.75
2022-07-29T20:25:39.303Z,3.40
2022-07-29T20:28:05.851Z,3.60
2022-07-29T20:30:32.394Z,3.67
2022-07-29T20:32:59.563Z,3.53
2022-07-29T20:35:26.288Z,3.30
2022-07-29T20:37:56.474Z,3.58
2022-07-29T20:40:25.088Z,4.07
2022-07-29T20:42:51.683Z,3.95
2022-07-29T20:45:18.201Z,4.35
2022-07-29T20:47:44.763Z,3.72
2022-07-29T20:50:11.590Z,4.40
2022-07-29T20:52:38.147Z,4.65
2022-07-29T20:55:05.726Z,5.15
2022-07-29T20:57:39.485Z,4.70
2022-07-29T21:00:07.768Z,4.78
2022-07-29T21:02:34.434Z,4.50
2022-07-29T21:05:01.061Z,5.22
2022-07-29T21:07:27.701Z,4.82
2022-07-29T21:09:54.229Z,4.38
2022-07-29T21:12:20.926Z,4.63
2022-07-29T21:14:48.828Z,4.50
2022-07-29T21:17:16.206Z,4.45
2022-07-29T21:19:42.888Z,5.25
2022-07-29T21:22:09.692Z,4.70
2022-07-29T21:24:36.476Z,5.50
2022-07-29T21:27:19.628Z,4.55
2022-07-29T21:29:49.154Z,5.28
2022-07-29T21:32:27.257Z,5.10
2022-07-29T21:34:56.766Z,4.60
2022-07-29T21:37:23.379Z,4.95
2022-07-29T21:39:49.976Z,4.60
2022-07-29T21:42:16.817Z,4.90
2022-07-29T21:44:43.366Z,4.30
2022-07-29T21:47:11.467Z,4.55
2022-07-29T21:49:38.415Z,5.30
2022-07-29T21:52:05.729Z,4.50
2022-07-29T21:54:34.586Z,4.03
2022-07-29T21:57:01.251Z,4.60
2022-07-29T21:59:27.794Z,4.70
2022-07-29T22:01:54.402Z,4.38
2022-07-29T22:04:22.357Z,4.15
2022-07-29T22:06:48.954Z,3.92
2022-07-29T22:09:15.480Z,3.72
2022-07-29T22:11:42.057Z,3.97
2022-07-29T22:14:08.591Z,3.85
2022-07-29T22:16:35.292Z,4.18
2022-07-29T22:19:01.954Z,4.03
2022-07-29T22:21:29.845Z,4.03
2022-07-29T22:23:56.393Z,4.18
2022-07-29T22:26:22.962Z,3.80
2022-07-29T22:28:50.142Z,3.90
2022-07-29T22:31:16.736Z,3.55
2022-07-29T22:33:43.350Z,3.80
2022-07-29T22:36:09.922Z,3.40
2022-07-29T22:38:37.812Z,3.85
2022-07-29T22:41:04.366Z,4.10
2022-07-29T22:43:30.901Z,4.13
2022-07-29T22:45:57.476Z,3.45
2022-07-29T22:48:24.093Z,3.85
2022-07-29T22:50:51.005Z,3.88
2022-07-29T22:53:17.572Z,3.80
2022-07-29T22:55:46.541Z,3.65
2022-07-29T22:58:13.098Z,3.80
2022-07-29T23:00:39.645Z,3.88
2022-07-29T23:03:06.184Z,3.50
2022-07-29T23:05:32.819Z,3.83
2022-07-29T23:07:59.395Z,3.70
2022-07-29T23:10:26.085Z,3.63
2022-07-29T23:12:54.016Z,3.65
2022-07-29T23:15:20.732Z,3.30
2022-07-29T23:17:47.275Z,3.83
2022-07-29T23:20:14.788Z,3.67
2022-07-29T23:22:41.795Z,3.60
2022-07-29T23:25:08.754Z,3.75
2022-07-29T23:27:35.497Z,4.00
2022-07-29T23:30:04.321Z,3.80
2022-07-29T23:32:30.873Z,3.85
2022-07-29T23:34:57.412Z,3.53
2022-07-29T23:37:24.078Z,3.58
2022-07-29T23:39:53.397Z,3.78
2022-07-29T23:42:19.965Z,3.63
2022-07-29T23:44:46.494Z,4.03
2022-07-29T23:47:14.406Z,3.72
2022-07-29T23:49:40.967Z,3.90
2022-07-29T23:52:07.598Z,3.72
2022-07-29T23:54:34.158Z,4.40
2022-07-29T23:57:01.009Z,4.18
2022-07-29T23:59:27.745Z,3.70
